Time;durP1;ratioP1;P1;durP2;ratioP2;P2;SDS_P1;SDS_P2;PMS_P1;PMS_P2;Temp;Humidity;BMP_temperature;BMP_pressure;BME280_temperature;BME280_humidity;BME280_pressure;Samples;Min_cycle;Max_cycle;Signal;HPM_P1;HPM_P2
2022/05/10 00:00:25;;;;;;;17.08;12.20;;;11.20;99.90;;;;;;4989792;28;20026;-85
2022/05/10 00:02:54;;;;;;;19.85;14.10;;;11.20;99.90;;;;;;4989672;28;20030;-85
2022/05/10 00:05:27;;;;;;;18.35;13.68;;;11.10;99.90;;;;;;4988928;28;20076;-85
2022/05/10 00:07:55;;;;;;;21.63;13.95;;;11.20;99.90;;;;;;4990311;28;20089;-85
2022/05/10 00:10:22;;;;;;;19.02;12.05;;;11.10;99.90;;;;;;4989001;28;20034;-85
2022/05/10 00:12:47;;;;;;;19.50;13.95;;;11.00;99.90;;;;;;4990163;28;20026;-85
2022/05/10 00:15:13;;;;;;;19.45;13.52;;;11.00;99.90;;;;;;4988958;28;20089;-85
2022/05/10 00:17:41;;;;;;;20.73;13.13;;;10.90;99.90;;;;;;4989322;28;20084;-85
2022/05/10 00:20:11;;;;;;;18.85;13.30;;;10.90;99.90;;;;;;4990077;28;20042;-85
2022/05/10 00:22:37;;;;;;;24.10;13.98;;;10.80;99.90;;;;;;4990307;28;20026;-85
2022/05/10 00:25:04;;;;;;;18.40;13.45;;;10.90;99.90;;;;;;4990692;28;20759;-85
2022/05/10 00:27:29;;;;;;;25.45;14.73;;;11.00;99.90;;;;;;4992847;28;20134;-85
2022/05/10 00:29:55;;;;;;;18.20;13.90;;;11.00;99.90;;;;;;4973446;28;20035;-86
2022/05/10 00:32:23;;;;;;;18.63;13.23;;;10.80;99.90;;;;;;4989709;28;20034;-85
2022/05/10 00:34:48;;;;;;;17.25;13.57;;;10.80;99.90;;;;;;4988932;28;20602;-85
2022/05/10 00:37:18;;;;;;;18.40;11.90;;;10.60;99.90;;;;;;4990054;28;20109;-85
2022/05/10 00:39:44;;;;;;;19.80;12.80;;;10.60;99.90;;;;;;4991242;28;20034;-85
2022/05/10 00:42:22;;;;;;;19.35;13.70;;;10.50;99.90;;;;;;4976534;28;20081;-85
2022/05/10 00:45:15;;;;;;;19.83;12.15;;;10.50;99.90;;;;;;4993784;28;20109;-85
2022/05/10 00:47:53;;;;;;;16.63;12.65;;;10.50;99.90;;;;;;4993715;28;20031;-85
2022/05/10 00:50:37;;;;;;;17.58;13.32;;;10.50;99.90;;;;;;4986707;28;20026;-86
2022/05/10 00:53:27;;;;;;;14.63;11.43;;;10.40;99.90;;;;;;4993701;28;20026;-85
2022/05/10 00:56:05;;;;;;;23.10;12.15;;;10.30;99.90;;;;;;4976986;28;20489;-85
2022/05/10 00:58:52;;;;;;;17.42;11.25;;;10.20;99.90;;;;;;4987867;28;20039;-85
2022/05/10 01:01:26;;;;;;;18.20;12.00;;;10.20;99.90;;;;;;4985299;28;20089;-86
2022/05/10 01:03:57;;;;;;;19.90;12.65;;;10.10;99.90;;;;;;4990346;28;20069;-85
2022/05/10 01:06:27;;;;;;;19.00;12.32;;;10.10;99.90;;;;;;4989428;28;20409;-86
2022/05/10 01:09:09;;;;;;;16.00;12.73;;;10.00;99.90;;;;;;4992591;28;20066;-85
2022/05/10 01:11:58;;;;;;;17.33;12.60;;;10.00;99.90;;;;;;4993287;28;20026;-85
2022/05/10 01:14:35;;;;;;;18.50;12.60;;;9.90;99.90;;;;;;5004824;28;20034;-85
2022/05/10 01:17:00;;;;;;;20.65;14.05;;;9.90;99.90;;;;;;4994907;28;20018;-86
2022/05/10 01:19:26;;;;;;;19.35;13.02;;;9.80;99.90;;;;;;4998225;28;20040;-86
2022/05/10 01:22:24;;;;;;;15.70;11.57;;;9.70;99.90;;;;;;5020582;28;20022;-85
2022/05/10 01:25:06;;;;;;;16.50;11.45;;;9.60;99.90;;;;;;5014967;28;20474;-85
2022/05/10 01:27:49;;;;;;;17.77;12.10;;;9.50;99.90;;;;;;5015950;28;20038;-85
2022/05/10 01:30:33;;;;;;;16.67;10.93;;;9.50;99.90;;;;;;5001082;28;20026;-86
2022/05/10 01:35:57;;;;;;;17.05;11.82;;;9.40;99.90;;;;;;4993314;28;20060;-85
2022/05/10 01:38:41;;;;;;;16.88;12.35;;;9.50;99.90;;;;;;4986331;28;20022;-85
2022/05/10 01:41:11;;;;;;;16.10;12.52;;;9.50;99.90;;;;;;4991362;28;20077;-85
2022/05/10 01:43:55;;;;;;;20.20;12.97;;;9.40;99.90;;;;;;4990995;28;20026;-85
2022/05/10 01:46:25;;;;;;;20.88;14.07;;;9.40;99.90;;;;;;4989141;28;20692;-86
2022/05/10 01:48:57;;;;;;;20.83;13.65;;;9.30;99.90;;;;;;4992455;28;20382;-85
2022/05/10 01:51:33;;;;;;;19.42;12.60;;;9.40;99.90;;;;;;4990386;28;20030;-85
2022/05/10 01:53:59;;;;;;;16.80;11.90;;;9.40;99.90;;;;;;4990154;28;20030;-85
2022/05/10 01:56:27;;;;;;;18.50;11.80;;;9.30;99.90;;;;;;4991593;28;20038;-85
2022/05/10 01:58:55;;;;;;;16.77;12.15;;;9.30;99.90;;;;;;4990973;28;20100;-86
2022/05/10 02:01:32;;;;;;;18.30;11.82;;;9.20;99.90;;;;;;4991987;28;20750;-85
2022/05/10 02:04:20;;;;;;;16.48;11.80;;;9.10;99.90;;;;;;5005530;28;20490;-86
2022/05/10 02:06:50;;;;;;;16.80;11.77;;;9.10;99.90;;;;;;4991033;28;20065;-85
2022/05/10 02:09:40;;;;;;;19.13;12.40;;;9.20;99.90;;;;;;4990888;28;20057;-86
2022/05/10 02:12:26;;;;;;;18.23;12.20;;;9.20;99.90;;;;;;4991297;28;20038;-86
2022/05/10 02:15:05;;;;;;;18.80;11.85;;;9.10;99.90;;;;;;4990116;28;20109;-85
2022/05/10 02:17:44;;;;;;;17.67;12.43;;;9.00;99.90;;;;;;4972767;28;20023;-85
2022/05/10 02:20:30;;;;;;;20.35;13.98;;;9.00;99.90;;;;;;4988564;28;20034;-85
2022/05/10 02:23:20;;;;;;;20.20;14.00;;;9.00;99.90;;;;;;4983650;28;20034;-85
2022/05/10 02:25:54;;;;;;;21.30;15.73;;;9.00;99.90;;;;;;4983158;28;20034;-85
2022/05/10 02:28:34;;;;;;;25.35;15.70;;;8.90;99.90;;;;;;4986601;28;20046;-85
2022/05/10 02:31:03;;;;;;;;;;;9.00;99.90;;;;;;5005268;28;20034;-85
2022/05/10 02:33:30;;;;;;;21.30;14.32;;;9.00;99.90;;;;;;4992469;28;19910;-85
2022/05/10 02:35:58;;;;;;;19.17;14.43;;;8.90;99.90;;;;;;4992313;28;20720;-85
2022/05/10 02:38:26;;;;;;;22.17;15.52;;;8.90;99.90;;;;;;4992032;28;20026;-85
2022/05/10 02:40:54;;;;;;;21.30;14.18;;;8.80;99.90;;;;;;4992891;28;20421;-85
2022/05/10 02:43:26;;;;;;;24.67;14.63;;;8.80;99.90;;;;;;4988544;28;20439;-85
2022/05/10 02:45:54;;;;;;;21.67;14.98;;;8.80;99.90;;;;;;4981339;28;20044;-85
2022/05/10 02:48:33;;;;;;;23.20;16.02;;;8.70;99.90;;;;;;4981953;28;20022;-85
2022/05/10 02:50:59;;;;;;;21.40;14.55;;;8.70;99.90;;;;;;4989317;28;20022;-83
2022/05/10 02:53:26;;;;;;;23.30;14.10;;;8.70;99.90;;;;;;4991532;28;20065;-83
2022/05/10 02:55:57;;;;;;;23.77;16.05;;;8.60;99.90;;;;;;4991268;28;20029;-83
2022/05/10 02:58:52;;;;;;;20.90;15.18;;;8.60;99.90;;;;;;4976889;28;20063;-83
2022/05/10 03:01:39;;;;;;;22.33;16.02;;;8.70;99.90;;;;;;4968967;28;20031;-83
2022/05/10 03:04:07;;;;;;;23.77;15.73;;;8.60;99.90;;;;;;4976908;28;20061;-83
2022/05/10 03:06:36;;;;;;;24.00;15.85;;;8.60;99.90;;;;;;4989592;28;20030;-83
2022/05/10 03:09:03;;;;;;;25.80;15.35;;;8.60;99.90;;;;;;4991087;28;20050;-83
2022/05/10 03:11:29;;;;;;;24.10;16.58;;;8.70;99.90;;;;;;4989500;28;20760;-83
2022/05/10 03:13:55;;;;;;;24.60;15.52;;;8.60;99.90;;;;;;4990580;28;20041;-83
2022/05/10 03:16:23;;;;;;;23.00;15.05;;;8.60;99.90;;;;;;4988511;28;20040;-83
2022/05/10 03:18:49;;;;;;;24.00;16.38;;;8.60;99.90;;;;;;4990755;28;20088;-83
2022/05/10 03:21:15;;;;;;;25.33;17.27;;;8.50;99.90;;;;;;4978332;28;20714;-83
2022/05/10 03:23:42;;;;;;;23.20;16.05;;;8.50;99.90;;;;;;4971513;28;20035;-83
2022/05/10 03:26:11;;;;;;;26.73;17.17;;;8.40;99.90;;;;;;4976647;28;20034;-83
2022/05/10 03:28:37;;;;;;;26.75;18.33;;;8.40;99.90;;;;;;5001055;28;20030;-83
2022/05/10 03:31:05;;;;;;;26.27;17.70;;;8.40;99.90;;;;;;4989011;28;20568;-83
2022/05/10 03:33:31;;;;;;;25.75;17.42;;;8.40;99.90;;;;;;4990901;28;20054;-84
2022/05/10 03:35:56;;;;;;;26.10;16.98;;;8.40;99.90;;;;;;4988932;28;20485;-83
2022/05/10 03:38:22;;;;;;;28.45;17.30;;;8.40;99.90;;;;;;4988845;28;20564;-83
2022/05/10 03:40:48;;;;;;;27.08;17.67;;;8.30;99.90;;;;;;4990493;28;20486;-83
2022/05/10 03:43:13;;;;;;;31.30;20.02;;;8.40;99.90;;;;;;4970002;28;20034;-83
2022/05/10 03:45:39;;;;;;;31.52;21.08;;;8.40;99.90;;;;;;4984718;28;20093;-83
2022/05/10 03:48:05;;;;;;;32.45;20.45;;;8.50;99.90;;;;;;4950251;28;20456;-85
2022/05/10 03:50:31;;;;;;;33.33;19.98;;;8.60;99.90;;;;;;5004223;28;20035;-86
2022/05/10 03:52:57;;;;;;;33.63;21.23;;;8.70;99.90;;;;;;5000702;28;20030;-82
2022/05/10 03:55:25;;;;;;;36.42;22.02;;;8.70;99.90;;;;;;4990832;28;20474;-83
2022/05/10 03:57:52;;;;;;;35.15;20.23;;;8.70;99.90;;;;;;4989467;28;20034;-83
2022/05/10 04:00:28;;;;;;;28.38;18.30;;;8.70;99.90;;;;;;4989963;28;20022;-83
2022/05/10 04:02:55;;;;;;;33.40;20.70;;;8.70;99.90;;;;;;4973102;28;20133;-83
2022/05/10 04:05:23;;;;;;;29.80;19.02;;;8.80;99.90;;;;;;4972105;28;20055;-83
2022/05/10 04:07:49;;;;;;;30.38;19.33;;;8.90;99.90;;;;;;4992701;28;20470;-83
2022/05/10 04:10:16;;;;;;;33.22;21.98;;;8.90;99.90;;;;;;4993002;28;20084;-83
2022/05/10 04:12:42;;;;;;;33.80;22.02;;;8.90;99.90;;;;;;4993807;28;20033;-83
2022/05/10 04:15:10;;;;;;;34.63;20.80;;;8.90;99.90;;;;;;4995560;28;20061;-83
2022/05/10 04:17:36;;;;;;;32.70;21.27;;;8.90;99.90;;;;;;5000341;28;20100;-83
2022/05/10 04:20:04;;;;;;;31.05;20.27;;;8.90;99.90;;;;;;4999121;28;20498;-83
2022/05/10 04:22:29;;;;;;;32.72;20.08;;;8.90;99.90;;;;;;4994151;28;20149;-83
2022/05/10 04:24:55;;;;;;;30.13;20.15;;;8.90;99.90;;;;;;4994899;28;20090;-83
2022/05/10 04:27:21;;;;;;;27.10;18.05;;;8.90;99.90;;;;;;5000162;28;20031;-83
2022/05/10 04:29:46;;;;;;;29.80;18.60;;;8.90;99.90;;;;;;5013964;28;20086;-83
2022/05/10 04:32:12;;;;;;;31.75;20.50;;;8.90;99.90;;;;;;5023247;28;20110;-82
2022/05/10 04:34:37;;;;;;;32.53;20.17;;;9.00;99.90;;;;;;5006608;28;20114;-82
2022/05/10 04:37:03;;;;;;;34.83;19.95;;;9.10;99.90;;;;;;5000713;28;20030;-83
2022/05/10 04:41:24;;;;;;;33.03;20.77;;;9.20;99.90;;;;;;4997984;28;20042;-82
2022/05/10 04:42:14;;;;;;;27.48;19.58;;;9.30;99.90;;;;;;4991096;28;20398;-84
2022/05/10 04:44:40;;;;;;;37.25;22.13;;;9.40;99.90;;;;;;5002034;28;20034;-83
2022/05/10 04:47:06;;;;;;;29.05;19.17;;;9.50;99.90;;;;;;4992739;28;20166;-84
2022/05/10 04:49:31;;;;;;;32.13;18.95;;;9.60;99.90;;;;;;4990190;28;20037;-84
2022/05/10 04:51:57;;;;;;;29.60;18.85;;;9.60;99.90;;;;;;4993289;28;20030;-84
2022/05/10 04:54:24;;;;;;;36.50;19.80;;;9.70;99.90;;;;;;4995776;28;20034;-84
2022/05/10 04:56:49;;;;;;;27.20;17.80;;;9.80;99.90;;;;;;5009083;28;20026;-84
2022/05/10 04:59:15;;;;;;;27.90;19.35;;;9.80;99.90;;;;;;4989395;28;20101;-84
2022/05/10 05:01:41;;;;;;;24.52;17.77;;;9.90;99.90;;;;;;4993289;28;20035;-84
2022/05/10 05:04:06;;;;;;;23.13;15.18;;;10.00;99.90;;;;;;4988230;28;20066;-85
2022/05/10 05:06:34;;;;;;;26.05;17.17;;;10.00;99.90;;;;;;4987498;28;20051;-85
2022/05/10 05:09:00;;;;;;;24.98;16.95;;;10.10;99.90;;;;;;5009724;28;20453;-85
2022/05/10 05:11:26;;;;;;;22.25;16.38;;;10.10;99.90;;;;;;4994515;28;20026;-85
2022/05/10 05:13:52;;;;;;;24.30;15.85;;;10.20;99.90;;;;;;5002614;28;20056;-86
2022/05/10 05:16:18;;;;;;;24.20;15.23;;;10.30;99.90;;;;;;4994017;28;20030;-85
2022/05/10 05:18:45;;;;;;;22.17;14.75;;;10.30;99.90;;;;;;4993906;28;20022;-85
2022/05/10 05:21:11;;;;;;;19.08;13.10;;;10.50;99.90;;;;;;4976244;28;20041;-85
2022/05/10 05:23:37;;;;;;;16.92;11.48;;;10.50;99.90;;;;;;4991541;28;20030;-85
2022/05/10 05:26:02;;;;;;;26.38;10.80;;;10.70;99.90;;;;;;4989565;28;20038;-85
2022/05/10 05:28:29;;;;;;;15.55;10.60;;;10.80;99.90;;;;;;5002837;28;20459;-85
2022/05/10 05:30:56;;;;;;;15.65;11.15;;;10.90;99.90;;;;;;5008656;28;20030;-85
2022/05/10 05:33:22;;;;;;;16.55;10.80;;;11.00;99.90;;;;;;4960395;28;20030;-85
2022/05/10 05:35:47;;;;;;;21.13;11.13;;;11.10;99.90;;;;;;4998331;28;20034;-84
2022/05/10 05:38:13;;;;;;;17.83;10.82;;;11.20;99.90;;;;;;4991236;28;20036;-85
2022/05/10 05:40:39;;;;;;;15.25;9.40;;;11.30;99.90;;;;;;4989399;28;20034;-85
2022/05/10 05:43:05;;;;;;;12.45;8.30;;;11.40;99.90;;;;;;5008089;28;20092;-84
2022/05/10 05:45:31;;;;;;;12.77;7.68;;;11.50;99.90;;;;;;4992130;28;20042;-84
2022/05/10 05:47:57;;;;;;;12.68;7.97;;;11.60;99.90;;;;;;4990934;28;20105;-84
2022/05/10 05:50:24;;;;;;;22.05;8.05;;;11.70;99.90;;;;;;4991282;28;20026;-84
2022/05/10 05:52:51;;;;;;;12.27;7.07;;;11.80;99.90;;;;;;4987791;28;20101;-83
2022/05/10 05:55:18;;;;;;;10.23;7.57;;;12.00;99.90;;;;;;4991123;28;20042;-81
2022/05/10 05:57:44;;;;;;;12.00;7.10;;;12.00;99.90;;;;;;4987222;28;20117;-83
2022/05/10 06:00:13;;;;;;;11.25;6.32;;;12.10;99.90;;;;;;4995910;28;20125;-83
2022/05/10 06:02:40;;;;;;;11.15;7.15;;;12.20;99.90;;;;;;5005494;28;20050;-83
2022/05/10 06:05:07;;;;;;;10.90;6.38;;;12.40;99.90;;;;;;4976374;28;20034;-84
2022/05/10 06:07:33;;;;;;;10.50;5.78;;;12.50;99.90;;;;;;4971737;28;20027;-83
2022/05/10 06:09:58;;;;;;;12.73;6.07;;;12.70;99.90;;;;;;4971340;28;20033;-84
2022/05/10 06:12:25;;;;;;;11.05;5.88;;;12.80;99.90;;;;;;4996364;28;20474;-86
2022/05/10 06:14:51;;;;;;;11.70;5.90;;;12.80;99.90;;;;;;4991197;28;20026;-86
2022/05/10 06:17:18;;;;;;;7.88;5.40;;;12.90;99.90;;;;;;4991744;28;20030;-85
2022/05/10 06:19:45;;;;;;;9.45;5.32;;;13.00;99.90;;;;;;5007219;28;20037;-86
2022/05/10 06:22:12;;;;;;;9.30;5.15;;;13.00;99.90;;;;;;4991126;28;20462;-85
2022/05/10 06:24:38;;;;;;;6.57;4.88;;;13.30;99.90;;;;;;4991816;28;20030;-86
2022/05/10 06:27:06;;;;;;;8.80;5.13;;;13.40;99.90;;;;;;4992085;28;20054;-86
2022/05/10 06:29:33;;;;;;;7.35;5.47;;;13.60;99.90;;;;;;4988334;28;20018;-86
2022/05/10 06:31:58;;;;;;;8.35;5.07;;;13.60;99.90;;;;;;4988901;28;20042;-86
2022/05/10 06:34:24;;;;;;;8.88;5.50;;;13.70;99.90;;;;;;4989573;28;20056;-86
2022/05/10 06:36:49;;;;;;;7.88;5.05;;;13.70;99.90;;;;;;4990080;28;20486;-85
2022/05/10 06:39:15;;;;;;;8.05;5.03;;;13.90;99.90;;;;;;4991390;28;20034;-86
2022/05/10 06:41:41;;;;;;;7.68;5.53;;;13.90;99.90;;;;;;5007402;28;20092;-85
2022/05/10 06:44:07;;;;;;;7.93;5.75;;;13.90;99.90;;;;;;4991191;28;20045;-85
2022/05/10 06:46:34;;;;;;;7.20;5.22;;;13.90;99.90;;;;;;4991431;28;20039;-84
2022/05/10 06:49:01;;;;;;;8.35;5.00;;;14.10;99.90;;;;;;4991773;28;20018;-84
2022/05/10 06:51:27;;;;;;;11.50;5.18;;;14.30;99.90;;;;;;4990573;28;20022;-85
2022/05/10 06:53:54;;;;;;;7.38;4.88;;;14.40;99.90;;;;;;4986905;28;20490;-85
2022/05/10 06:56:20;;;;;;;6.50;4.38;;;14.40;99.90;;;;;;4990584;28;20058;-85
2022/05/10 06:58:46;;;;;;;7.93;4.10;;;14.60;99.90;;;;;;4990531;28;20034;-85
2022/05/10 07:01:12;;;;;;;6.03;3.90;;;14.70;99.90;;;;;;4977226;28;20049;-85
2022/05/10 07:03:49;;;;;;;6.63;4.40;;;14.90;99.90;;;;;;4989583;28;20084;-84
2022/05/10 07:06:19;;;;;;;6.97;3.80;;;15.10;99.90;;;;;;4991195;28;20033;-85
2022/05/10 07:08:45;;;;;;;10.35;3.90;;;15.40;99.90;;;;;;4984856;28;20069;-85
2022/05/10 07:11:11;;;;;;;5.68;3.97;;;15.50;99.90;;;;;;4991129;28;20046;-85
2022/05/10 07:13:37;;;;;;;8.35;4.00;;;15.60;99.90;;;;;;4990936;28;20529;-85
2022/05/10 07:16:03;;;;;;;6.60;3.90;;;15.70;99.90;;;;;;5006102;28;20049;-85
2022/05/10 07:18:29;;;;;;;8.93;4.57;;;15.80;99.90;;;;;;4990574;28;20054;-85
2022/05/10 07:20:55;;;;;;;5.88;3.80;;;16.10;99.90;;;;;;5006242;28;20030;-85
2022/05/10 07:23:23;;;;;;;9.18;3.60;;;16.30;99.90;;;;;;4985681;28;20398;-86
2022/05/10 07:25:49;;;;;;;6.13;3.50;;;16.20;99.90;;;;;;4985170;28;20019;-85
2022/05/10 07:28:16;;;;;;;7.20;3.80;;;16.30;99.60;;;;;;4988663;28;20339;-85
2022/05/10 07:30:41;;;;;;;7.38;3.72;;;16.50;99.90;;;;;;5005031;28;20039;-85
2022/05/10 07:33:08;;;;;;;5.50;3.55;;;16.60;99.90;;;;;;5024852;28;20023;-85
2022/05/10 07:38:19;;;;;;;9.02;3.67;;;16.80;97.80;;;;;;5013182;28;20356;-85
2022/05/10 07:40:47;;;;;;;6.28;3.45;;;16.90;97.50;;;;;;5013866;28;20027;-86
2022/05/10 07:43:19;;;;;;;7.60;3.50;;;17.10;96.30;;;;;;5001488;28;20026;-86
2022/05/10 07:45:47;;;;;;;4.70;3.22;;;17.20;95.60;;;;;;5003732;28;20058;-86
2022/05/10 07:51:34;;;;;;;5.95;3.58;;;17.30;96.50;;;;;;4987954;28;20068;-86
2022/05/10 07:54:00;;;;;;;7.68;3.22;;;17.40;97.50;;;;;;5010412;28;20034;-85
2022/05/10 07:56:26;;;;;;;4.53;3.08;;;17.50;98.50;;;;;;4993748;28;20038;-85
2022/05/10 07:58:56;;;;;;;9.77;3.40;;;17.50;94.30;;;;;;4994253;28;20490;-85
2022/05/10 08:01:22;;;;;;;5.03;3.45;;;17.80;93.80;;;;;;4994036;28;20034;-86
2022/05/10 08:03:47;;;;;;;3.95;2.97;;;17.80;93.00;;;;;;4994584;28;20508;-85
2022/05/10 08:06:15;;;;;;;6.13;3.75;;;17.50;89.20;;;;;;5002066;28;20030;-85
2022/05/10 08:08:41;;;;;;;5.78;3.30;;;17.70;92.60;;;;;;5010240;28;20026;-85
2022/05/10 08:11:08;;;;;;;7.45;4.00;;;18.00;94.80;;;;;;5009668;28;20390;-84
2022/05/10 08:13:34;;;;;;;7.00;3.22;;;18.10;90.90;;;;;;4994453;28;20051;-85
2022/05/10 08:16:00;;;;;;;9.10;3.47;;;18.20;93.50;;;;;;4987899;28;20030;-85
2022/05/10 08:18:26;;;;;;;5.05;3.08;;;18.40;90.20;;;;;;4984721;28;20026;-85
2022/05/10 08:20:55;;;;;;;6.55;3.30;;;18.40;82.90;;;;;;4982514;28;20046;-86
2022/05/10 08:23:25;;;;;;;6.68;3.83;;;18.40;88.30;;;;;;5010042;28;20050;-86
2022/05/10 08:25:55;;;;;;;8.25;3.60;;;18.60;87.50;;;;;;4994725;28;20029;-86
2022/05/10 08:28:23;;;;;;;;;;;18.90;85.40;;;;;;4990878;28;20029;-85
2022/05/10 08:30:49;;;;;;;6.68;3.42;;;18.90;79.10;;;;;;4992699;28;20349;-86
2022/05/10 08:33:24;;;;;;;6.10;4.00;;;18.90;88.20;;;;;;4994753;28;20098;-85
2022/05/10 08:35:51;;;;;;;5.32;3.65;;;19.20;90.10;;;;;;4992733;28;20030;-85
2022/05/10 08:38:17;;;;;;;5.28;3.40;;;19.30;84.30;;;;;;4989100;28;20026;-86
2022/05/10 08:40:46;;;;;;;8.65;3.65;;;19.20;86.90;;;;;;4990334;28;20117;-86
2022/05/10 08:43:21;;;;;;;6.50;3.65;;;19.50;82.90;;;;;;4993771;28;20098;-86
2022/05/10 08:45:47;;;;;;;4.88;3.60;;;19.50;79.90;;;;;;5009219;28;20065;-86
2022/05/10 08:48:13;;;;;;;5.88;3.60;;;19.40;79.70;;;;;;5009898;28;20023;-86
2022/05/10 08:50:40;;;;;;;5.40;4.30;;;19.60;86.40;;;;;;4993143;28;20138;-86
2022/05/10 08:53:07;;;;;;;6.70;4.07;;;19.60;74.20;;;;;;4992684;28;20030;-86
2022/05/10 08:55:40;;;;;;;5.95;4.15;;;19.90;73.00;;;;;;5008445;28;20092;-86
2022/05/10 08:58:37;;;;;;;8.88;3.72;;;20.00;80.10;;;;;;4991781;28;20482;-86
2022/05/10 09:01:08;;;;;;;5.95;3.85;;;20.20;80.40;;;;;;5004296;28;20121;-86
2022/05/10 09:03:47;;;;;;;7.78;4.13;;;20.20;74.60;;;;;;4979020;28;20035;-86
2022/05/10 09:06:20;;;;;;;7.22;4.40;;;20.40;69.10;;;;;;4983013;28;20030;-86
2022/05/10 09:09:09;;;;;;;6.80;4.30;;;20.80;69.40;;;;;;4996319;28;20026;-86
2022/05/10 09:12:00;;;;;;;5.93;3.85;;;20.60;71.40;;;;;;4995733;28;20138;-86
2022/05/10 09:14:34;;;;;;;6.15;4.28;;;20.80;71.10;;;;;;4994674;28;20033;-86
2022/05/10 09:17:02;;;;;;;6.10;4.05;;;20.70;72.60;;;;;;4992815;28;20026;-86
2022/05/10 09:19:40;;;;;;;6.13;4.47;;;20.60;67.80;;;;;;5015313;28;20023;-86
2022/05/10 09:22:22;;;;;;;6.45;4.22;;;20.90;68.50;;;;;;5001304;28;20389;-86
2022/05/10 09:24:54;;;;;;;7.78;4.47;;;20.80;68.40;;;;;;4998610;28;20116;-86
2022/05/10 09:27:25;;;;;;;6.20;4.50;;;20.60;66.80;;;;;;4992751;28;20113;-87
2022/05/10 09:29:52;;;;;;;6.82;4.07;;;20.70;62.50;;;;;;4991611;28;20030;-87
2022/05/10 09:35:17;;;;;;;6.40;5.00;;;21.10;60.70;;;;;;4994363;28;20121;-87
2022/05/10 09:38:02;;;;;;;7.60;4.82;;;21.30;67.10;;;;;;4992922;28;20035;-87
2022/05/10 09:40:46;;;;;;;6.38;4.05;;;21.30;69.20;;;;;;5009861;28;20041;-86
2022/05/10 09:43:22;;;;;;;7.15;4.90;;;21.20;69.60;;;;;;4994471;28;20034;-87
2022/05/10 09:46:34;;;;;;;5.75;4.85;;;21.10;62.10;;;;;;4995288;28;20802;-88
2022/05/10 09:49:00;;;;;;;7.32;5.38;;;21.30;64.20;;;;;;4989143;28;20105;-87
2022/05/10 09:51:41;;;;;;;8.13;5.03;;;21.40;62.40;;;;;;5008565;28;20018;-87
2022/05/10 09:54:35;;;;;;;7.55;5.35;;;21.80;65.60;;;;;;5003943;28;20510;-87
2022/05/10 09:57:01;;;;;;;8.02;5.22;;;22.30;58.10;;;;;;4989480;28;20030;-88
2022/05/10 09:59:39;;;;;;;8.68;5.57;;;22.40;58.70;;;;;;4991769;28;20269;-87
2022/05/10 10:02:05;;;;;;;8.25;5.47;;;22.40;55.00;;;;;;4987424;28;20886;-88
2022/05/10 10:04:37;;;;;;;6.35;5.40;;;22.50;50.60;;;;;;4991211;28;20031;-88
2022/05/10 10:07:17;;;;;;;6.85;5.55;;;22.70;52.10;;;;;;4995121;28;20034;-88
2022/05/10 10:09:47;;;;;;;9.02;6.10;;;22.70;51.80;;;;;;5009035;28;20025;-87
2022/05/10 10:12:29;;;;;;;11.55;5.68;;;23.10;53.70;;;;;;4990926;28;20113;-87
2022/05/10 10:14:55;;;;;;;10.18;6.15;;;22.90;54.00;;;;;;5001552;28;20097;-88
2022/05/10 10:17:27;;;;;;;11.10;5.45;;;22.80;48.80;;;;;;4991331;28;20035;-87
2022/05/10 10:20:11;;;;;;;7.55;5.88;;;23.30;54.50;;;;;;4984048;28;20034;-89
2022/05/10 10:22:43;;;;;;;9.43;6.05;;;23.50;53.70;;;;;;4992403;28;20030;-88
2022/05/10 10:25:20;;;;;;;7.80;6.05;;;23.30;52.20;;;;;;4991682;28;20022;-88
2022/05/10 10:27:59;;;;;;;8.38;5.53;;;23.40;47.40;;;;;;4991050;28;20030;-88
2022/05/10 10:30:43;;;;;;;7.00;5.28;;;23.30;52.80;;;;;;4985535;28;20023;-88
2022/05/10 10:33:34;;;;;;;9.15;5.85;;;23.70;49.40;;;;;;4985047;28;20733;-87
2022/05/10 10:36:12;;;;;;;12.48;5.82;;;23.40;53.00;;;;;;4989977;28;20022;-88
2022/05/10 10:39:13;;;;;;;8.02;6.13;;;23.50;51.90;;;;;;4993550;28;20041;-88
2022/05/10 10:41:46;;;;;;;;;;;24.00;52.90;;;;;;5007134;28;20034;-88
2022/05/10 10:44:23;;;;;;;7.25;5.63;;;23.60;48.80;;;;;;5009029;28;19921;-88
2022/05/10 10:47:08;;;;;;;7.07;5.35;;;23.60;48.30;;;;;;5006012;28;20042;-88
2022/05/10 10:49:57;;;;;;;8.60;5.97;;;23.70;47.50;;;;;;5001919;28;20038;-88
2022/05/10 10:52:23;;;;;;;7.33;5.67;;;24.00;47.00;;;;;;5009699;28;20069;-88
2022/05/10 10:54:49;;;;;;;8.00;6.07;;;24.60;48.10;;;;;;5006948;28;20027;-88
2022/05/10 10:57:30;;;;;;;9.13;5.43;;;25.20;44.10;;;;;;4991857;28;20048;-88
2022/05/10 11:00:20;;;;;;;6.32;5.32;;;25.30;41.50;;;;;;4991178;28;20093;-88
2022/05/10 11:02:45;;;;;;;;;;;25.60;38.10;;;;;;4992757;28;20051;-88
2022/05/10 11:05:28;;;;;;;6.50;5.57;;;25.80;37.70;;;;;;4991253;28;19914;-88
2022/05/10 11:08:11;;;;;;;7.50;5.72;;;26.30;40.00;;;;;;4992024;28;20050;-88
2022/05/10 11:10:47;;;;;;;5.60;4.93;;;26.10;40.70;;;;;;4992363;28;20062;-88
2022/05/10 11:13:21;;;;;;;6.35;4.93;;;26.90;36.70;;;;;;5001486;28;20034;-88
2022/05/10 11:15:56;;;;;;;6.03;4.97;;;27.90;33.90;;;;;;4983807;28;20157;-88
2022/05/10 11:18:28;;;;;;;4.85;4.30;;;27.40;35.70;;;;;;4992684;28;20440;-88
2022/05/10 11:21:15;;;;;;;5.32;4.63;;;27.10;33.00;;;;;;4991139;28;20178;-88
2022/05/10 11:24:12;;;;;;;7.32;4.80;;;28.10;36.30;;;;;;4990398;28;20125;-88
2022/05/10 11:27:11;;;;;;;9.18;5.32;;;28.50;33.40;;;;;;5002556;28;20025;-87
2022/05/10 11:29:58;;;;;;;8.88;5.57;;;28.10;36.00;;;;;;4972235;28;20117;-88
2022/05/10 11:32:52;;;;;;;7.38;5.90;;;28.30;37.50;;;;;;4989621;28;20077;-88
2022/05/10 11:35:41;;;;;;;5.78;4.63;;;29.20;31.90;;;;;;4981345;28;20476;-88
2022/05/10 11:38:34;;;;;;;6.57;4.90;;;30.10;34.60;;;;;;4984174;28;20046;-88
2022/05/10 11:41:25;;;;;;;5.20;4.70;;;28.70;29.90;;;;;;4994472;28;20062;-89
2022/05/10 11:44:16;;;;;;;5.82;5.13;;;29.00;29.30;;;;;;4988130;28;20034;-89
2022/05/10 11:47:05;;;;;;;6.70;4.80;;;29.80;30.00;;;;;;4991580;28;20126;-89
2022/05/10 11:49:36;;;;;;;;;;;28.70;32.10;;;;;;4977133;28;20025;-87
2022/05/10 11:52:10;;;;;;;6.53;5.78;;;29.10;32.30;;;;;;4990759;28;19910;-89
2022/05/10 11:55:11;;;;;;;9.05;6.07;;;29.30;32.90;;;;;;4990114;28;20022;-89
2022/05/10 11:57:37;;;;;;;6.60;5.75;;;29.40;32.00;;;;;;4989685;28;20018;-89
2022/05/10 12:00:30;;;;;;;5.80;5.20;;;30.30;31.50;;;;;;4992535;28;20450;-89
2022/05/10 12:03:01;;;;;;;5.70;4.95;;;30.30;30.40;;;;;;4998733;28;20399;-89
2022/05/10 12:05:32;;;;;;;6.22;5.63;;;29.30;31.10;;;;;;4984610;28;20275;-89
2022/05/10 12:08:01;;;;;;;5.82;4.63;;;28.60;29.50;;;;;;4989793;28;20027;-89
2022/05/10 12:10:42;;;;;;;6.97;5.50;;;30.50;31.90;;;;;;4990775;28;20026;-89
2022/05/10 12:22:10;;;;;;;6.65;5.22;;;31.20;30.10;;;;;;4988870;28;20088;-89
2022/05/10 12:24:44;;;;;;;9.13;5.22;;;31.90;27.90;;;;;;4978964;28;20155;-89
2022/05/10 12:27:12;;;;;;;8.25;5.05;;;32.10;27.60;;;;;;4994031;28;20042;-89
2022/05/10 12:29:38;;;;;;;6.30;5.50;;;32.00;25.60;;;;;;4993590;28;20049;-88
2022/05/10 12:32:04;;;;;;;7.13;5.50;;;31.40;27.30;;;;;;4979069;28;20361;-90
2022/05/10 12:34:52;;;;;;;7.50;5.72;;;31.20;28.80;;;;;;4986343;28;20026;-90
2022/05/10 12:37:30;;;;;;;7.60;6.07;;;30.70;28.40;;;;;;4991420;28;20059;-88
2022/05/10 12:40:02;;;;;;;5.93;5.28;;;30.80;27.30;;;;;;4991654;28;20109;-89
2022/05/10 12:42:47;;;;;;;8.07;5.38;;;31.60;30.70;;;;;;4989915;28;20038;-90
2022/05/10 12:45:41;;;;;;;8.38;6.00;;;33.20;26.50;;;;;;5003098;28;20173;-89
2022/05/10 12:48:39;;;;;;;7.25;5.78;;;33.10;27.60;;;;;;4995602;28;20080;-90
2022/05/10 12:51:32;;;;;;;8.30;5.93;;;32.60;25.00;;;;;;4994712;28;20055;-91
2022/05/10 12:54:17;;;;;;;6.75;6.05;;;32.80;28.90;;;;;;5013784;28;20030;-91
2022/05/10 12:56:44;;;;;;;7.13;6.35;;;32.00;26.20;;;;;;4995044;28;20105;-91
2022/05/10 12:59:32;;;;;;;8.43;5.72;;;32.60;26.10;;;;;;4997918;28;20038;-91
2022/05/10 13:01:58;;;;;;;7.80;5.70;;;31.50;27.30;;;;;;4993523;28;20038;-91
2022/05/10 13:04:32;;;;;;;8.75;6.28;;;31.70;32.10;;;;;;4992898;28;20030;-90
2022/05/10 13:07:06;;;;;;;6.70;5.90;;;32.00;26.50;;;;;;5007028;28;20035;-90
2022/05/10 13:09:43;;;;;;;8.93;6.28;;;31.60;25.60;;;;;;4978230;28;20121;-87
2022/05/10 13:12:20;;;;;;;9.18;6.60;;;31.50;27.80;;;;;;4987515;28;20033;-88
2022/05/10 13:14:50;;;;;;;9.43;7.15;;;32.00;26.90;;;;;;4983772;28;20057;-88
2022/05/10 13:17:34;;;;;;;7.85;6.05;;;30.30;25.90;;;;;;4981686;28;20057;-89
2022/05/10 13:20:06;;;;;;;9.02;6.43;;;30.50;29.30;;;;;;5001471;28;20035;-89
2022/05/10 13:22:32;;;;;;;7.72;6.57;;;30.80;28.90;;;;;;4993940;28;20425;-89
2022/05/10 13:25:00;;;;;;;8.02;6.63;;;29.50;28.20;;;;;;4993074;28;20022;-88
2022/05/10 13:27:46;;;;;;;9.05;6.05;;;31.20;28.30;;;;;;5007169;28;20081;-89